sensor_id;sensor_type;location;lat;lon;timestamp;temperature;humidity
20929;DHT22;21895;47.072;15.132;2023-01-29T00:02:11;1.90;99.90
20929;DHT22;21895;47.072;15.132;2023-01-29T00:04:37;2.00;99.90
20929;DHT22;21895;47.072;15.132;2023-01-29T00:07:04;2.00;99.90
20929;DHT22;21895;47.072;15.132;2023-01-29T00:09:30;2.10;99.90
20929;DHT22;21895;47.072;15.132;2023-01-29T00:11:57;2.10;99.90
20929;DHT22;21895;47.072;15.132;2023-01-29T00:14:23;2.00;99.90
20929;DHT22;21895;47.072;15.132;2023-01-29T00:16:52;2.10;99.90
20929;DHT22;21895;47.072;15.132;2023-01-29T00:19:19;2.00;99.90
20929;DHT22;21895;47.072;15.132;2023-01-29T00:21:45;2.00;99.90
20929;DHT22;21895;47.072;15.132;2023-01-29T00:24:12;2.10;99.90
20929;DHT22;21895;47.072;15.132;2023-01-29T00:26:38;2.10;99.90
20929;DHT22;21895;47.072;15.132;2023-01-29T00:29:05;2.10;99.90
20929;DHT22;21895;47.072;15.132;2023-01-29T00:31:32;2.00;99.90
20929;DHT22;21895;47.072;15.132;2023-01-29T00:33:58;2.00;99.90
20929;DHT22;21895;47.072;15.132;2023-01-29T00:36:25;2.00;99.90
20929;DHT22;21895;47.072;15.132;2023-01-29T00:38:59;2.00;99.90
20929;DHT22;21895;47.072;15.132;2023-01-29T00:41:32;2.00;99.90
20929;DHT22;21895;47.072;15.132;2023-01-29T00:44:17;2.00;99.90
20929;DHT22;21895;47.072;15.132;2023-01-29T00:47:03;2.00;99.90
20929;DHT22;21895;47.072;15.132;2023-01-29T00:49:55;1.90;99.90
20929;DHT22;21895;47.072;15.132;2023-01-29T00:52:22;2.00;99.90
20929;DHT22;21895;47.072;15.132;2023-01-29T00:54:54;1.90;99.90
20929;DHT22;21895;47.072;15.132;2023-01-29T00:57:23;2.00;99.90
20929;DHT22;21895;47.072;15.132;2023-01-29T00:59:51;1.90;99.90
20929;DHT22;21895;47.072;15.132;2023-01-29T01:02:18;1.90;99.90
20929;DHT22;21895;47.072;15.132;2023-01-29T01:05:04;1.90;99.90
20929;DHT22;21895;47.072;15.132;2023-01-29T01:07:32;1.90;99.90
20929;DHT22;21895;47.072;15.132;2023-01-29T01:09:59;2.00;99.90
20929;DHT22;21895;47.072;15.132;2023-01-29T01:12:44;2.00;99.90
20929;DHT22;21895;47.072;15.132;2023-01-29T01:15:11;2.00;99.90
20929;DHT22;21895;47.072;15.132;2023-01-29T01:17:37;2.00;99.90
20929;DHT22;21895;47.072;15.132;2023-01-29T01:20:04;2.00;99.90
20929;DHT22;21895;47.072;15.132;2023-01-29T01:22:31;2.00;99.90
20929;DHT22;21895;47.072;15.132;2023-01-29T01:24:57;2.00;99.90
20929;DHT22;21895;47.072;15.132;2023-01-29T01:27:24;2.00;99.90
20929;DHT22;21895;47.072;15.132;2023-01-29T01:29:50;2.10;99.90
20929;DHT22;21895;47.072;15.132;2023-01-29T01:32:17;2.00;99.90
20929;DHT22;21895;47.072;15.132;2023-01-29T01:34:44;2.00;99.90
20929;DHT22;21895;47.072;15.132;2023-01-29T01:37:10;2.10;99.90
20929;DHT22;21895;47.072;15.132;2023-01-29T01:39:37;2.10;99.90
20929;DHT22;21895;47.072;15.132;2023-01-29T01:42:05;2.00;99.90
20929;DHT22;21895;47.072;15.132;2023-01-29T01:47:01;2.00;99.90
20929;DHT22;21895;47.072;15.132;2023-01-29T01:49:28;2.00;99.90
20929;DHT22;21895;47.072;15.132;2023-01-29T01:51:54;2.10;99.90
20929;DHT22;21895;47.072;15.132;2023-01-29T01:54:25;2.10;99.90
20929;DHT22;21895;47.072;15.132;2023-01-29T01:56:57;2.10;99.90
20929;DHT22;21895;47.072;15.132;2023-01-29T01:59:39;2.00;99.90
20929;DHT22;21895;47.072;15.132;2023-01-29T02:02:08;2.00;99.90
20929;DHT22;21895;47.072;15.132;2023-01-29T02:04:53;2.00;99.90
20929;DHT22;21895;47.072;15.132;2023-01-29T02:07:42;2.00;99.90
20929;DHT22;21895;47.072;15.132;2023-01-29T02:10:52;2.00;99.90
20929;DHT22;21895;47.072;15.132;2023-01-29T02:13:18;2.10;99.90
20929;DHT22;21895;47.072;15.132;2023-01-29T02:15:45;2.00;99.90
20929;DHT22;21895;47.072;15.132;2023-01-29T02:18:15;2.00;99.90
20929;DHT22;21895;47.072;15.132;2023-01-29T02:20:54;2.00;99.90
20929;DHT22;21895;47.072;15.132;2023-01-29T02:28:04;2.00;99.90
20929;DHT22;21895;47.072;15.132;2023-01-29T02:34:00;2.10;99.90
20929;DHT22;21895;47.072;15.132;2023-01-29T02:39:40;2.10;99.90
20929;DHT22;21895;47.072;15.132;2023-01-29T02:42:34;2.10;99.90
20929;DHT22;21895;47.072;15.132;2023-01-29T02:47:03;2.10;99.90
20929;DHT22;21895;47.072;15.132;2023-01-29T02:50:04;2.10;99.90
20929;DHT22;21895;47.072;15.132;2023-01-29T02:53:36;2.10;99.90
20929;DHT22;21895;47.072;15.132;2023-01-29T02:56:12;2.10;99.90
20929;DHT22;21895;47.072;15.132;2023-01-29T02:58:52;2.10;99.90
20929;DHT22;21895;47.072;15.132;2023-01-29T03:01:52;2.10;99.90
20929;DHT22;21895;47.072;15.132;2023-01-29T03:04:30;2.10;99.90
20929;DHT22;21895;47.072;15.132;2023-01-29T03:07:16;2.00;99.90
20929;DHT22;21895;47.072;15.132;2023-01-29T03:10:21;2.00;99.90
20929;DHT22;21895;47.072;15.132;2023-01-29T03:13:17;2.00;99.90
20929;DHT22;21895;47.072;15.132;2023-01-29T03:16:03;2.00;99.90
20929;DHT22;21895;47.072;15.132;2023-01-29T03:18:45;2.00;99.90
20929;DHT22;21895;47.072;15.132;2023-01-29T03:21:28;1.90;99.90
20929;DHT22;21895;47.072;15.132;2023-01-29T03:24:31;2.00;99.90
20929;DHT22;21895;47.072;15.132;2023-01-29T03:27:33;1.90;99.90
20929;DHT22;21895;47.072;15.132;2023-01-29T03:30:27;2.00;99.90
20929;DHT22;21895;47.072;15.132;2023-01-29T03:33:17;2.00;99.90
20929;DHT22;21895;47.072;15.132;2023-01-29T03:36:03;2.00;99.90
20929;DHT22;21895;47.072;15.132;2023-01-29T03:38:33;2.00;99.90
20929;DHT22;21895;47.072;15.132;2023-01-29T03:41:27;2.00;99.90
20929;DHT22;21895;47.072;15.132;2023-01-29T03:44:13;2.10;99.90
20929;DHT22;21895;47.072;15.132;2023-01-29T03:46:58;2.00;99.90
20929;DHT22;21895;47.072;15.132;2023-01-29T03:51:40;2.00;99.90
20929;DHT22;21895;47.072;15.132;2023-01-29T03:56:18;1.90;99.90
20929;DHT22;21895;47.072;15.132;2023-01-29T04:04:37;1.90;99.90
20929;DHT22;21895;47.072;15.132;2023-01-29T04:07:18;1.80;99.90
20929;DHT22;21895;47.072;15.132;2023-01-29T04:09:59;1.80;99.90
20929;DHT22;21895;47.072;15.132;2023-01-29T04:12:42;1.90;99.90
20929;DHT22;21895;47.072;15.132;2023-01-29T04:15:14;1.90;99.90
20929;DHT22;21895;47.072;15.132;2023-01-29T04:17:50;1.90;99.90
20929;DHT22;21895;47.072;15.132;2023-01-29T04:20:19;1.90;99.90
20929;DHT22;21895;47.072;15.132;2023-01-29T04:22:49;1.90;99.90
20929;DHT22;21895;47.072;15.132;2023-01-29T04:25:22;1.90;99.90
20929;DHT22;21895;47.072;15.132;2023-01-29T04:28:36;2.00;99.90
20929;DHT22;21895;47.072;15.132;2023-01-29T04:31:22;2.00;99.90
20929;DHT22;21895;47.072;15.132;2023-01-29T04:39:59;2.00;99.90
20929;DHT22;21895;47.072;15.132;2023-01-29T04:43:25;1.90;99.90
20929;DHT22;21895;47.072;15.132;2023-01-29T04:46:18;1.90;99.90
20929;DHT22;21895;47.072;15.132;2023-01-29T04:53:16;1.80;99.90
20929;DHT22;21895;47.072;15.132;2023-01-29T04:56:23;1.70;99.90
20929;DHT22;21895;47.072;15.132;2023-01-29T04:59:01;1.60;99.90
20929;DHT22;21895;47.072;15.132;2023-01-29T05:01:33;1.60;99.90
20929;DHT22;21895;47.072;15.132;2023-01-29T05:04:05;1.50;99.90
20929;DHT22;21895;47.072;15.132;2023-01-29T05:06:36;1.40;99.90
20929;DHT22;21895;47.072;15.132;2023-01-29T05:09:04;1.50;99.90
20929;DHT22;21895;47.072;15.132;2023-01-29T05:11:34;1.50;99.90
20929;DHT22;21895;47.072;15.132;2023-01-29T05:14:03;1.50;99.90
20929;DHT22;21895;47.072;15.132;2023-01-29T05:16:39;1.40;99.90
20929;DHT22;21895;47.072;15.132;2023-01-29T05:19:14;1.30;99.90
20929;DHT22;21895;47.072;15.132;2023-01-29T05:21:44;1.30;99.90
20929;DHT22;21895;47.072;15.132;2023-01-29T05:24:21;1.30;99.90
20929;DHT22;21895;47.072;15.132;2023-01-29T05:26:52;1.30;99.90
20929;DHT22;21895;47.072;15.132;2023-01-29T05:29:44;1.30;99.90
20929;DHT22;21895;47.072;15.132;2023-01-29T05:32:13;1.40;99.90
20929;DHT22;21895;47.072;15.132;2023-01-29T05:34:40;1.40;99.90
20929;DHT22;21895;47.072;15.132;2023-01-29T05:37:08;1.40;99.90
20929;DHT22;21895;47.072;15.132;2023-01-29T05:39:35;1.50;99.90
20929;DHT22;21895;47.072;15.132;2023-01-29T05:42:01;1.60;99.90
20929;DHT22;21895;47.072;15.132;2023-01-29T05:44:28;1.60;99.90
20929;DHT22;21895;47.072;15.132;2023-01-29T05:46:54;1.60;99.90
20929;DHT22;21895;47.072;15.132;2023-01-29T05:49:21;1.50;99.90
20929;DHT22;21895;47.072;15.132;2023-01-29T05:51:48;1.50;99.90
20929;DHT22;21895;47.072;15.132;2023-01-29T05:54:14;1.40;99.90
20929;DHT22;21895;47.072;15.132;2023-01-29T05:56:41;1.40;99.90
20929;DHT22;21895;47.072;15.132;2023-01-29T05:59:07;1.40;99.90
20929;DHT22;21895;47.072;15.132;2023-01-29T06:01:34;1.30;99.90
20929;DHT22;21895;47.072;15.132;2023-01-29T06:04:00;1.30;99.90
20929;DHT22;21895;47.072;15.132;2023-01-29T06:06:26;1.20;99.90
20929;DHT22;21895;47.072;15.132;2023-01-29T06:08:54;1.10;99.90
20929;DHT22;21895;47.072;15.132;2023-01-29T06:11:20;1.10;99.90
20929;DHT22;21895;47.072;15.132;2023-01-29T06:13:47;1.00;99.90
20929;DHT22;21895;47.072;15.132;2023-01-29T06:16:14;1.10;99.90
20929;DHT22;21895;47.072;15.132;2023-01-29T06:18:41;1.10;99.90
20929;DHT22;21895;47.072;15.132;2023-01-29T06:21:10;1.10;99.90
20929;DHT22;21895;47.072;15.132;2023-01-29T06:23:39;1.10;99.90
20929;DHT22;21895;47.072;15.132;2023-01-29T06:26:11;1.00;99.90
20929;DHT22;21895;47.072;15.132;2023-01-29T06:28:39;1.00;99.90
20929;DHT22;21895;47.072;15.132;2023-01-29T06:31:06;0.90;99.90
20929;DHT22;21895;47.072;15.132;2023-01-29T06:33:57;0.80;99.90
20929;DHT22;21895;47.072;15.132;2023-01-29T06:36:23;0.70;99.90
20929;DHT22;21895;47.072;15.132;2023-01-29T06:38:50;0.60;99.90
20929;DHT22;21895;47.072;15.132;2023-01-29T06:41:18;0.70;99.90
20929;DHT22;21895;47.072;15.132;2023-01-29T06:43:47;0.70;99.90
20929;DHT22;21895;47.072;15.132;2023-01-29T06:46:14;0.70;99.90
20929;DHT22;21895;47.072;15.132;2023-01-29T06:48:40;0.70;99.90
20929;DHT22;21895;47.072;15.132;2023-01-29T06:51:08;0.70;99.90
20929;DHT22;21895;47.072;15.132;2023-01-29T06:53:37;0.70;99.90
20929;DHT22;21895;47.072;15.132;2023-01-29T06:56:04;0.60;99.90
20929;DHT22;21895;47.072;15.132;2023-01-29T06:58:32;0.50;99.90
20929;DHT22;21895;47.072;15.132;2023-01-29T07:01:06;0.40;99.90
20929;DHT22;21895;47.072;15.132;2023-01-29T07:03:35;0.50;99.90
20929;DHT22;21895;47.072;15.132;2023-01-29T07:06:02;0.60;99.90
20929;DHT22;21895;47.072;15.132;2023-01-29T07:08:30;0.70;99.90
20929;DHT22;21895;47.072;15.132;2023-01-29T07:11:00;0.70;99.90
20929;DHT22;21895;47.072;15.132;2023-01-29T07:13:27;0.80;99.90
20929;DHT22;21895;47.072;15.132;2023-01-29T07:15:57;0.70;99.90
20929;DHT22;21895;47.072;15.132;2023-01-29T07:18:28;0.60;99.90
20929;DHT22;21895;47.072;15.132;2023-01-29T07:20:56;0.70;99.90
20929;DHT22;21895;47.072;15.132;2023-01-29T07:23:23;0.70;99.90
20929;DHT22;21895;47.072;15.132;2023-01-29T07:25:50;0.70;99.90
20929;DHT22;21895;47.072;15.132;2023-01-29T07:28:17;0.80;99.90
20929;DHT22;21895;47.072;15.132;2023-01-29T07:30:45;1.00;99.90
20929;DHT22;21895;47.072;15.132;2023-01-29T07:33:12;1.10;99.90
20929;DHT22;21895;47.072;15.132;2023-01-29T07:35:41;1.20;99.90
20929;DHT22;21895;47.072;15.132;2023-01-29T07:38:09;1.10;99.90
20929;DHT22;21895;47.072;15.132;2023-01-29T07:40:36;1.00;99.90
20929;DHT22;21895;47.072;15.132;2023-01-29T07:43:05;0.90;99.90
20929;DHT22;21895;47.072;15.132;2023-01-29T07:45:34;0.80;99.90
20929;DHT22;21895;47.072;15.132;2023-01-29T07:48:02;0.70;99.90
20929;DHT22;21895;47.072;15.132;2023-01-29T07:50:31;0.80;99.90
20929;DHT22;21895;47.072;15.132;2023-01-29T07:52:59;0.70;99.90
20929;DHT22;21895;47.072;15.132;2023-01-29T07:55:26;0.70;99.90
20929;DHT22;21895;47.072;15.132;2023-01-29T07:58:00;0.80;99.90
20929;DHT22;21895;47.072;15.132;2023-01-29T08:00:29;1.00;99.90
20929;DHT22;21895;47.072;15.132;2023-01-29T08:03:04;1.00;99.90
20929;DHT22;21895;47.072;15.132;2023-01-29T08:05:32;1.10;99.90
20929;DHT22;21895;47.072;15.132;2023-01-29T08:07:59;1.40;99.90
20929;DHT22;21895;47.072;15.132;2023-01-29T08:10:34;1.50;99.90
20929;DHT22;21895;47.072;15.132;2023-01-29T08:13:03;1.60;99.90
20929;DHT22;21895;47.072;15.132;2023-01-29T08:15:30;1.80;99.90
20929;DHT22;21895;47.072;15.132;2023-01-29T08:17:58;1.70;99.90
20929;DHT22;21895;47.072;15.132;2023-01-29T08:20:26;1.70;99.90
20929;DHT22;21895;47.072;15.132;2023-01-29T08:23:04;1.60;99.90
20929;DHT22;21895;47.072;15.132;2023-01-29T08:25:33;1.60;99.90
20929;DHT22;21895;47.072;15.132;2023-01-29T08:28:01;1.60;99.90
20929;DHT22;21895;47.072;15.132;2023-01-29T08:30:29;1.60;99.90
20929;DHT22;21895;47.072;15.132;2023-01-29T08:32:57;1.60;99.90
20929;DHT22;21895;47.072;15.132;2023-01-29T08:35:24;1.70;99.90
20929;DHT22;21895;47.072;15.132;2023-01-29T08:37:53;1.80;99.90
20929;DHT22;21895;47.072;15.132;2023-01-29T08:40:27;1.90;99.90
20929;DHT22;21895;47.072;15.132;2023-01-29T08:43:04;2.00;99.90
20929;DHT22;21895;47.072;15.132;2023-01-29T08:45:36;2.00;99.90
20929;DHT22;21895;47.072;15.132;2023-01-29T08:48:06;2.10;99.90
20929;DHT22;21895;47.072;15.132;2023-01-29T08:50:34;2.10;99.90
20929;DHT22;21895;47.072;15.132;2023-01-29T08:53:03;2.10;99.90
20929;DHT22;21895;47.072;15.132;2023-01-29T08:55:34;2.20;99.90
20929;DHT22;21895;47.072;15.132;2023-01-29T08:58:06;2.30;99.90
20929;DHT22;21895;47.072;15.132;2023-01-29T09:00:34;2.30;99.90
20929;DHT22;21895;47.072;15.132;2023-01-29T09:03:00;2.30;99.90
20929;DHT22;21895;47.072;15.132;2023-01-29T09:05:28;2.30;99.90
20929;DHT22;21895;47.072;15.132;2023-01-29T09:07:58;2.50;99.90
20929;DHT22;21895;47.072;15.132;2023-01-29T09:10:24;2.50;99.90
20929;DHT22;21895;47.072;15.132;2023-01-29T09:12:51;2.60;99.90
20929;DHT22;21895;47.072;15.132;2023-01-29T09:15:18;2.60;99.90
20929;DHT22;21895;47.072;15.132;2023-01-29T09:17:45;2.70;99.90
20929;DHT22;21895;47.072;15.132;2023-01-29T09:20:14;2.70;99.90
20929;DHT22;21895;47.072;15.132;2023-01-29T09:22:41;2.60;99.90
20929;DHT22;21895;47.072;15.132;2023-01-29T09:25:08;2.70;99.90
20929;DHT22;21895;47.072;15.132;2023-01-29T09:27:35;2.80;99.90
20929;DHT22;21895;47.072;15.132;2023-01-29T09:30:03;2.90;99.90
20929;DHT22;21895;47.072;15.132;2023-01-29T09:32:31;2.80;99.90
20929;DHT22;21895;47.072;15.132;2023-01-29T09:35:29;2.80;99.90
20929;DHT22;21895;47.072;15.132;2023-01-29T09:37:55;2.70;99.90
20929;DHT22;21895;47.072;15.132;2023-01-29T09:40:33;2.70;99.90
20929;DHT22;21895;47.072;15.132;2023-01-29T09:43:50;2.80;99.90
20929;DHT22;21895;47.072;15.132;2023-01-29T09:49:35;3.10;99.90
20929;DHT22;21895;47.072;15.132;2023-01-29T09:52:22;3.10;99.90
20929;DHT22;21895;47.072;15.132;2023-01-29T09:55:22;2.90;99.90
20929;DHT22;21895;47.072;15.132;2023-01-29T09:57:57;2.90;99.90
20929;DHT22;21895;47.072;15.132;2023-01-29T10:05:02;2.90;99.90
20929;DHT22;21895;47.072;15.132;2023-01-29T10:16:45;3.00;99.90
20929;DHT22;21895;47.072;15.132;2023-01-29T10:25:04;2.80;99.90
20929;DHT22;21895;47.072;15.132;2023-01-29T10:27:38;3.20;99.90
20929;DHT22;21895;47.072;15.132;2023-01-29T10:30:25;3.30;99.90
20929;DHT22;21895;47.072;15.132;2023-01-29T10:33:13;3.30;99.90
20929;DHT22;21895;47.072;15.132;2023-01-29T10:36:50;3.20;99.90
20929;DHT22;21895;47.072;15.132;2023-01-29T10:39:21;3.50;99.90
20929;DHT22;21895;47.072;15.132;2023-01-29T10:53:30;3.30;99.90
20929;DHT22;21895;47.072;15.132;2023-01-29T11:00:38;3.50;99.90
20929;DHT22;21895;47.072;15.132;2023-01-29T11:03:21;3.50;99.90
20929;DHT22;21895;47.072;15.132;2023-01-29T11:06:36;3.60;99.90
20929;DHT22;21895;47.072;15.132;2023-01-29T11:10:09;3.70;99.90
20929;DHT22;21895;47.072;15.132;2023-01-29T11:12:43;3.60;99.90
20929;DHT22;21895;47.072;15.132;2023-01-29T11:15:25;3.50;99.90
20929;DHT22;21895;47.072;15.132;2023-01-29T11:18:06;3.60;99.90
20929;DHT22;21895;47.072;15.132;2023-01-29T11:20:43;3.60;99.90
20929;DHT22;21895;47.072;15.132;2023-01-29T11:23:32;3.50;99.90
20929;DHT22;21895;47.072;15.132;2023-01-29T11:25:59;3.60;99.90
20929;DHT22;21895;47.072;15.132;2023-01-29T11:28:43;3.50;99.90
20929;DHT22;21895;47.072;15.132;2023-01-29T11:31:22;3.60;99.90
20929;DHT22;21895;47.072;15.132;2023-01-29T11:34:03;3.70;99.90
20929;DHT22;21895;47.072;15.132;2023-01-29T11:36:38;3.70;99.90
20929;DHT22;21895;47.072;15.132;2023-01-29T11:39:16;3.70;99.90
20929;DHT22;21895;47.072;15.132;2023-01-29T11:41:59;3.60;99.90
20929;DHT22;21895;47.072;15.132;2023-01-29T11:44:41;3.60;99.90
20929;DHT22;21895;47.072;15.132;2023-01-29T11:47:19;3.70;99.90
20929;DHT22;21895;47.072;15.132;2023-01-29T11:49:53;3.70;99.90
20929;DHT22;21895;47.072;15.132;2023-01-29T11:52:34;3.70;99.90
20929;DHT22;21895;47.072;15.132;2023-01-29T11:55:24;3.60;99.90
20929;DHT22;21895;47.072;15.132;2023-01-29T11:58:10;3.70;99.90
20929;DHT22;21895;47.072;15.132;2023-01-29T12:00:45;3.70;99.90
20929;DHT22;21895;47.072;15.132;2023-01-29T12:03:21;3.60;99.90
20929;DHT22;21895;47.072;15.132;2023-01-29T12:06:20;3.70;99.90
20929;DHT22;21895;47.072;15.132;2023-01-29T12:08:57;3.60;99.90
20929;DHT22;21895;47.072;15.132;2023-01-29T12:11:33;3.30;99.90
20929;DHT22;21895;47.072;15.132;2023-01-29T12:14:03;3.30;99.90
20929;DHT22;21895;47.072;15.132;2023-01-29T12:16:51;3.50;99.90
20929;DHT22;21895;47.072;15.132;2023-01-29T12:20:02;3.40;99.90
20929;DHT22;21895;47.072;15.132;2023-01-29T12:22:47;3.50;99.90
20929;DHT22;21895;47.072;15.132;2023-01-29T12:29:36;3.30;99.90
20929;DHT22;21895;47.072;15.132;2023-01-29T12:32:26;3.30;99.90
20929;DHT22;21895;47.072;15.132;2023-01-29T12:35:18;3.20;99.90
20929;DHT22;21895;47.072;15.132;2023-01-29T12:38:23;3.00;99.90
20929;DHT22;21895;47.072;15.132;2023-01-29T12:41:06;3.10;99.90
20929;DHT22;21895;47.072;15.132;2023-01-29T12:43:51;3.20;99.90
20929;DHT22;21895;47.072;15.132;2023-01-29T12:46:25;3.30;99.90
20929;DHT22;21895;47.072;15.132;2023-01-29T12:48:56;3.20;99.90
20929;DHT22;21895;47.072;15.132;2023-01-29T12:51:30;3.40;99.90
20929;DHT22;21895;47.072;15.132;2023-01-29T12:54:15;3.50;99.90
20929;DHT22;21895;47.072;15.132;2023-01-29T12:56:49;3.50;99.90
20929;DHT22;21895;47.072;15.132;2023-01-29T12:59:44;3.60;99.90
20929;DHT22;21895;47.072;15.132;2023-01-29T13:02:38;3.60;99.90
20929;DHT22;21895;47.072;15.132;2023-01-29T13:05:32;3.60;99.90
20929;DHT22;21895;47.072;15.132;2023-01-29T13:08:48;3.50;99.90
20929;DHT22;21895;47.072;15.132;2023-01-29T13:14:53;3.30;99.90
20929;DHT22;21895;47.072;15.132;2023-01-29T13:17:41;3.00;99.90
20929;DHT22;21895;47.072;15.132;2023-01-29T13:20:23;3.00;99.90
20929;DHT22;21895;47.072;15.132;2023-01-29T13:22:58;3.10;99.90
20929;DHT22;21895;47.072;15.132;2023-01-29T13:25:31;3.00;99.90
20929;DHT22;21895;47.072;15.132;2023-01-29T13:27:57;3.00;99.90
20929;DHT22;21895;47.072;15.132;2023-01-29T13:30:35;3.10;99.90
20929;DHT22;21895;47.072;15.132;2023-01-29T13:33:04;3.10;99.90
20929;DHT22;21895;47.072;15.132;2023-01-29T13:35:42;3.10;99.90
20929;DHT22;21895;47.072;15.132;2023-01-29T13:38:44;3.10;99.90
20929;DHT22;21895;47.072;15.132;2023-01-29T13:41:10;3.00;99.90
20929;DHT22;21895;47.072;15.132;2023-01-29T13:43:40;3.20;99.90
20929;DHT22;21895;47.072;15.132;2023-01-29T13:46:15;3.10;99.90
20929;DHT22;21895;47.072;15.132;2023-01-29T13:48:48;3.20;99.90
20929;DHT22;21895;47.072;15.132;2023-01-29T13:51:20;3.10;99.90
20929;DHT22;21895;47.072;15.132;2023-01-29T13:53:59;3.10;99.90
20929;DHT22;21895;47.072;15.132;2023-01-29T13:56:46;3.00;99.90
20929;DHT22;21895;47.072;15.132;2023-01-29T14:00:58;2.90;99.90
20929;DHT22;21895;47.072;15.132;2023-01-29T14:03:44;2.90;99.90
20929;DHT22;21895;47.072;15.132;2023-01-29T14:06:41;3.00;99.90
20929;DHT22;21895;47.072;15.132;2023-01-29T14:10:29;3.20;99.90
20929;DHT22;21895;47.072;15.132;2023-01-29T14:13:33;3.20;99.90
20929;DHT22;21895;47.072;15.132;2023-01-29T14:16:45;3.30;99.90
20929;DHT22;21895;47.072;15.132;2023-01-29T14:19:18;3.30;99.90
20929;DHT22;21895;47.072;15.132;2023-01-29T14:21:48;3.30;99.90
20929;DHT22;21895;47.072;15.132;2023-01-29T14:24:18;3.20;99.90
20929;DHT22;21895;47.072;15.132;2023-01-29T14:26:55;3.20;99.90
20929;DHT22;21895;47.072;15.132;2023-01-29T14:29:27;3.00;99.90
20929;DHT22;21895;47.072;15.132;2023-01-29T14:32:34;2.90;99.90
20929;DHT22;21895;47.072;15.132;2023-01-29T14:35:28;2.90;99.90
20929;DHT22;21895;47.072;15.132;2023-01-29T14:38:03;2.80;99.90
20929;DHT22;21895;47.072;15.132;2023-01-29T14:40:31;2.80;99.90
20929;DHT22;21895;47.072;15.132;2023-01-29T14:43:15;2.80;99.90
20929;DHT22;21895;47.072;15.132;2023-01-29T14:45:46;2.80;99.90
20929;DHT22;21895;47.072;15.132;2023-01-29T14:48:44;2.80;99.90
20929;DHT22;21895;47.072;15.132;2023-01-29T14:51:14;3.00;99.90
20929;DHT22;21895;47.072;15.132;2023-01-29T14:59:36;2.70;99.90
20929;DHT22;21895;47.072;15.132;2023-01-29T15:02:17;2.70;99.90
20929;DHT22;21895;47.072;15.132;2023-01-29T15:04:50;2.80;99.90
20929;DHT22;21895;47.072;15.132;2023-01-29T15:07:37;2.70;99.90
20929;DHT22;21895;47.072;15.132;2023-01-29T15:10:32;2.70;99.90
20929;DHT22;21895;47.072;15.132;2023-01-29T15:13:36;2.60;99.90
20929;DHT22;21895;47.072;15.132;2023-01-29T15:16:23;2.60;99.90
20929;DHT22;21895;47.072;15.132;2023-01-29T15:19:28;2.60;99.90
20929;DHT22;21895;47.072;15.132;2023-01-29T15:22:05;2.50;99.90
20929;DHT22;21895;47.072;15.132;2023-01-29T15:24:35;2.60;99.90
20929;DHT22;21895;47.072;15.132;2023-01-29T15:27:02;2.50;99.90
20929;DHT22;21895;47.072;15.132;2023-01-29T15:29:30;2.50;99.90
20929;DHT22;21895;47.072;15.132;2023-01-29T15:31:57;2.40;99.90
20929;DHT22;21895;47.072;15.132;2023-01-29T15:34:24;2.20;99.90
20929;DHT22;21895;47.072;15.132;2023-01-29T15:36:51;2.20;99.90
20929;DHT22;21895;47.072;15.132;2023-01-29T15:39:23;2.30;99.90
20929;DHT22;21895;47.072;15.132;2023-01-29T15:42:02;2.40;99.90
20929;DHT22;21895;47.072;15.132;2023-01-29T15:44:36;2.50;99.90
20929;DHT22;21895;47.072;15.132;2023-01-29T15:47:09;2.50;99.90
20929;DHT22;21895;47.072;15.132;2023-01-29T15:49:38;2.50;99.90
20929;DHT22;21895;47.072;15.132;2023-01-29T15:52:19;2.40;99.90
20929;DHT22;21895;47.072;15.132;2023-01-29T15:54:48;2.30;99.90
20929;DHT22;21895;47.072;15.132;2023-01-29T15:57:23;2.40;99.90
20929;DHT22;21895;47.072;15.132;2023-01-29T15:59:55;2.30;99.90
20929;DHT22;21895;47.072;15.132;2023-01-29T16:02:41;2.30;99.90
20929;DHT22;21895;47.072;15.132;2023-01-29T16:05:16;2.30;99.90
20929;DHT22;21895;47.072;15.132;2023-01-29T16:07:48;2.20;99.90
20929;DHT22;21895;47.072;15.132;2023-01-29T16:10:21;2.20;99.90
20929;DHT22;21895;47.072;15.132;2023-01-29T16:12:50;2.30;99.90
20929;DHT22;21895;47.072;15.132;2023-01-29T16:15:27;2.20;99.90
20929;DHT22;21895;47.072;15.132;2023-01-29T16:18:00;2.20;99.90
20929;DHT22;21895;47.072;15.132;2023-01-29T16:20:43;2.20;99.90
20929;DHT22;21895;47.072;15.132;2023-01-29T16:23:21;2.20;99.90
20929;DHT22;21895;47.072;15.132;2023-01-29T16:25:50;2.20;99.90
20929;DHT22;21895;47.072;15.132;2023-01-29T16:28:18;2.20;99.90
20929;DHT22;21895;47.072;15.132;2023-01-29T16:30:45;2.20;99.90
20929;DHT22;21895;47.072;15.132;2023-01-29T16:33:13;2.20;99.90
20929;DHT22;21895;47.072;15.132;2023-01-29T16:35:42;2.20;99.90
20929;DHT22;21895;47.072;15.132;2023-01-29T16:38:32;2.30;99.90
20929;DHT22;21895;47.072;15.132;2023-01-29T16:46:04;2.10;99.90
20929;DHT22;21895;47.072;15.132;2023-01-29T16:48:41;1.90;99.90
20929;DHT22;21895;47.072;15.132;2023-01-29T16:51:56;1.80;99.90
20929;DHT22;21895;47.072;15.132;2023-01-29T16:54:49;1.90;99.90
20929;DHT22;21895;47.072;15.132;2023-01-29T16:57:20;1.90;99.90
20929;DHT22;21895;47.072;15.132;2023-01-29T16:59:54;2.00;99.90
20929;DHT22;21895;47.072;15.132;2023-01-29T17:02:29;2.00;99.90
20929;DHT22;21895;47.072;15.132;2023-01-29T17:05:09;2.00;99.90
20929;DHT22;21895;47.072;15.132;2023-01-29T17:07:46;1.90;99.90
20929;DHT22;21895;47.072;15.132;2023-01-29T17:10:17;1.80;99.90
20929;DHT22;21895;47.072;15.132;2023-01-29T17:13:45;1.80;99.90
20929;DHT22;21895;47.072;15.132;2023-01-29T17:16:31;1.90;99.90
20929;DHT22;21895;47.072;15.132;2023-01-29T17:18:59;1.90;99.90
20929;DHT22;21895;47.072;15.132;2023-01-29T17:21:28;2.00;99.90
20929;DHT22;21895;47.072;15.132;2023-01-29T17:23:55;1.80;99.90
20929;DHT22;21895;47.072;15.132;2023-01-29T17:26:22;1.90;99.90
20929;DHT22;21895;47.072;15.132;2023-01-29T17:28:50;1.90;99.90
20929;DHT22;21895;47.072;15.132;2023-01-29T17:31:18;1.80;99.90
20929;DHT22;21895;47.072;15.132;2023-01-29T17:33:46;1.80;99.90
20929;DHT22;21895;47.072;15.132;2023-01-29T17:36:15;1.80;99.90
20929;DHT22;21895;47.072;15.132;2023-01-29T17:38:42;1.90;99.90
20929;DHT22;21895;47.072;15.132;2023-01-29T17:41:27;1.90;99.90
20929;DHT22;21895;47.072;15.132;2023-01-29T17:43:55;1.80;99.90
20929;DHT22;21895;47.072;15.132;2023-01-29T17:46:21;1.80;99.90
20929;DHT22;21895;47.072;15.132;2023-01-29T17:48:48;1.80;99.90
20929;DHT22;21895;47.072;15.132;2023-01-29T17:51:16;1.90;99.90
20929;DHT22;21895;47.072;15.132;2023-01-29T17:53:43;1.90;99.90
20929;DHT22;21895;47.072;15.132;2023-01-29T17:56:25;1.90;99.90
20929;DHT22;21895;47.072;15.132;2023-01-29T17:58:52;1.90;99.90
20929;DHT22;21895;47.072;15.132;2023-01-29T18:01:19;1.80;99.90
20929;DHT22;21895;47.072;15.132;2023-01-29T18:03:45;1.80;99.90